sensor_id;sensor_type;location;lat;lon;timestamp;temperature;humidity
28010;DHT22;15334;49.494;8.410;2023-02-26T00:00:13;1.70;99.90
28010;DHT22;15334;49.494;8.410;2023-02-26T00:02:42;1.70;99.90
28010;DHT22;15334;49.494;8.410;2023-02-26T00:05:11;1.70;99.90
28010;DHT22;15334;49.494;8.410;2023-02-26T00:07:40;1.60;99.90
28010;DHT22;15334;49.494;8.410;2023-02-26T00:10:10;1.50;99.90
28010;DHT22;15334;49.494;8.410;2023-02-26T00:12:39;1.50;99.90
28010;DHT22;15334;49.494;8.410;2023-02-26T00:15:12;1.50;99.90
28010;DHT22;15334;49.494;8.410;2023-02-26T00:17:44;1.40;99.90
28010;DHT22;15334;49.494;8.410;2023-02-26T00:20:16;1.40;99.90
28010;DHT22;15334;49.494;8.410;2023-02-26T00:22:45;1.40;99.90
28010;DHT22;15334;49.494;8.410;2023-02-26T00:25:13;1.40;99.90
28010;DHT22;15334;49.494;8.410;2023-02-26T00:27:42;1.40;99.90
28010;DHT22;15334;49.494;8.410;2023-02-26T00:30:12;1.40;99.90
28010;DHT22;15334;49.494;8.410;2023-02-26T00:32:41;1.40;99.90
28010;DHT22;15334;49.494;8.410;2023-02-26T00:35:13;1.40;99.90
28010;DHT22;15334;49.494;8.410;2023-02-26T00:37:56;1.50;99.90
28010;DHT22;15334;49.494;8.410;2023-02-26T00:40:34;1.40;99.90
28010;DHT22;15334;49.494;8.410;2023-02-26T00:43:04;1.40;99.90
28010;DHT22;15334;49.494;8.410;2023-02-26T00:45:34;1.40;99.90
28010;DHT22;15334;49.494;8.410;2023-02-26T00:48:19;1.40;99.90
28010;DHT22;15334;49.494;8.410;2023-02-26T00:50:55;1.40;99.90
28010;DHT22;15334;49.494;8.410;2023-02-26T00:53:30;1.40;99.90
28010;DHT22;15334;49.494;8.410;2023-02-26T00:55:59;1.40;99.90
28010;DHT22;15334;49.494;8.410;2023-02-26T00:58:27;1.40;99.90
28010;DHT22;15334;49.494;8.410;2023-02-26T01:00:58;1.30;99.90
28010;DHT22;15334;49.494;8.410;2023-02-26T01:03:27;1.30;99.90
28010;DHT22;15334;49.494;8.410;2023-02-26T01:05:55;1.20;99.90
28010;DHT22;15334;49.494;8.410;2023-02-26T01:08:27;1.20;99.90
28010;DHT22;15334;49.494;8.410;2023-02-26T01:11:00;1.10;99.90
28010;DHT22;15334;49.494;8.410;2023-02-26T01:13:28;1.10;99.90
28010;DHT22;15334;49.494;8.410;2023-02-26T01:16:03;1.00;99.90
28010;DHT22;15334;49.494;8.410;2023-02-26T01:18:40;1.00;99.90
28010;DHT22;15334;49.494;8.410;2023-02-26T01:21:14;1.00;99.90
28010;DHT22;15334;49.494;8.410;2023-02-26T01:23:46;1.00;99.90
28010;DHT22;15334;49.494;8.410;2023-02-26T01:26:20;1.00;99.90
28010;DHT22;15334;49.494;8.410;2023-02-26T01:28:50;1.00;99.90
28010;DHT22;15334;49.494;8.410;2023-02-26T01:31:31;1.00;99.90
28010;DHT22;15334;49.494;8.410;2023-02-26T01:34:07;1.00;99.90
28010;DHT22;15334;49.494;8.410;2023-02-26T01:36:41;1.00;99.90
28010;DHT22;15334;49.494;8.410;2023-02-26T01:39:15;1.00;99.90
28010;DHT22;15334;49.494;8.410;2023-02-26T01:41:48;0.90;99.90
28010;DHT22;15334;49.494;8.410;2023-02-26T01:44:23;0.90;99.90
28010;DHT22;15334;49.494;8.410;2023-02-26T01:47:01;0.90;99.90
28010;DHT22;15334;49.494;8.410;2023-02-26T01:49:33;0.90;99.90
28010;DHT22;15334;49.494;8.410;2023-02-26T01:52:02;1.00;99.90
28010;DHT22;15334;49.494;8.410;2023-02-26T01:54:33;1.00;99.90
28010;DHT22;15334;49.494;8.410;2023-02-26T01:57:03;1.00;99.90
28010;DHT22;15334;49.494;8.410;2023-02-26T01:59:33;1.00;99.90
28010;DHT22;15334;49.494;8.410;2023-02-26T02:02:07;1.10;99.90
28010;DHT22;15334;49.494;8.410;2023-02-26T02:04:37;1.20;99.90
28010;DHT22;15334;49.494;8.410;2023-02-26T02:07:06;1.20;99.90
28010;DHT22;15334;49.494;8.410;2023-02-26T02:09:34;1.20;99.90
28010;DHT22;15334;49.494;8.410;2023-02-26T02:12:09;1.20;99.90
28010;DHT22;15334;49.494;8.410;2023-02-26T02:14:48;1.20;99.90
28010;DHT22;15334;49.494;8.410;2023-02-26T02:17:31;1.20;99.90
28010;DHT22;15334;49.494;8.410;2023-02-26T02:20:41;1.20;99.90
28010;DHT22;15334;49.494;8.410;2023-02-26T02:23:13;1.20;99.90
28010;DHT22;15334;49.494;8.410;2023-02-26T02:26:06;1.10;99.90
28010;DHT22;15334;49.494;8.410;2023-02-26T02:28:45;1.10;99.90
28010;DHT22;15334;49.494;8.410;2023-02-26T02:31:21;1.10;99.90
28010;DHT22;15334;49.494;8.410;2023-02-26T02:33:54;1.00;99.90
28010;DHT22;15334;49.494;8.410;2023-02-26T02:36:30;1.00;99.90
28010;DHT22;15334;49.494;8.410;2023-02-26T02:39:02;1.00;99.90
28010;DHT22;15334;49.494;8.410;2023-02-26T02:41:36;1.00;99.90
28010;DHT22;15334;49.494;8.410;2023-02-26T02:44:12;1.00;99.90
28010;DHT22;15334;49.494;8.410;2023-02-26T02:46:45;1.00;99.90
28010;DHT22;15334;49.494;8.410;2023-02-26T02:49:14;0.90;99.90
28010;DHT22;15334;49.494;8.410;2023-02-26T02:51:48;0.90;99.90
28010;DHT22;15334;49.494;8.410;2023-02-26T02:54:22;0.90;99.90
28010;DHT22;15334;49.494;8.410;2023-02-26T02:56:54;0.90;99.90
28010;DHT22;15334;49.494;8.410;2023-02-26T02:59:27;0.80;99.90
28010;DHT22;15334;49.494;8.410;2023-02-26T03:02:03;0.90;99.90
28010;DHT22;15334;49.494;8.410;2023-02-26T03:04:37;0.80;99.90
28010;DHT22;15334;49.494;8.410;2023-02-26T03:07:05;0.80;99.90
28010;DHT22;15334;49.494;8.410;2023-02-26T03:09:36;0.80;99.90
28010;DHT22;15334;49.494;8.410;2023-02-26T03:12:04;0.70;99.90
28010;DHT22;15334;49.494;8.410;2023-02-26T03:14:33;0.80;99.90
28010;DHT22;15334;49.494;8.410;2023-02-26T03:17:19;0.70;99.90
28010;DHT22;15334;49.494;8.410;2023-02-26T03:20:02;0.80;99.90
28010;DHT22;15334;49.494;8.410;2023-02-26T03:22:37;0.80;99.90
28010;DHT22;15334;49.494;8.410;2023-02-26T03:25:10;0.80;99.90
28010;DHT22;15334;49.494;8.410;2023-02-26T03:27:41;0.70;99.90
28010;DHT22;15334;49.494;8.410;2023-02-26T03:30:15;0.80;99.90
28010;DHT22;15334;49.494;8.410;2023-02-26T03:32:50;0.70;99.90
28010;DHT22;15334;49.494;8.410;2023-02-26T03:35:26;0.70;99.90
28010;DHT22;15334;49.494;8.410;2023-02-26T03:37:59;0.70;99.90
28010;DHT22;15334;49.494;8.410;2023-02-26T03:40:32;0.80;99.90
28010;DHT22;15334;49.494;8.410;2023-02-26T03:43:05;0.80;99.90
28010;DHT22;15334;49.494;8.410;2023-02-26T03:45:37;0.80;99.90
28010;DHT22;15334;49.494;8.410;2023-02-26T03:48:10;0.80;99.90
28010;DHT22;15334;49.494;8.410;2023-02-26T03:50:42;0.90;99.90
28010;DHT22;15334;49.494;8.410;2023-02-26T03:53:13;0.80;99.90
28010;DHT22;15334;49.494;8.410;2023-02-26T03:55:50;0.80;99.90
28010;DHT22;15334;49.494;8.410;2023-02-26T03:58:22;0.80;99.90
28010;DHT22;15334;49.494;8.410;2023-02-26T04:01:01;0.80;99.90
28010;DHT22;15334;49.494;8.410;2023-02-26T04:03:34;0.70;99.90
28010;DHT22;15334;49.494;8.410;2023-02-26T04:06:04;0.70;99.90
28010;DHT22;15334;49.494;8.410;2023-02-26T04:08:37;0.70;99.90
28010;DHT22;15334;49.494;8.410;2023-02-26T04:11:11;0.70;99.90
28010;DHT22;15334;49.494;8.410;2023-02-26T04:13:40;0.70;99.90
28010;DHT22;15334;49.494;8.410;2023-02-26T04:16:08;0.60;99.90
28010;DHT22;15334;49.494;8.410;2023-02-26T04:18:37;0.60;99.90
28010;DHT22;15334;49.494;8.410;2023-02-26T04:21:09;0.60;99.90
28010;DHT22;15334;49.494;8.410;2023-02-26T04:23:37;0.50;99.90
28010;DHT22;15334;49.494;8.410;2023-02-26T04:26:05;0.50;99.90
28010;DHT22;15334;49.494;8.410;2023-02-26T04:28:33;0.60;99.90
28010;DHT22;15334;49.494;8.410;2023-02-26T04:31:04;0.60;99.90
28010;DHT22;15334;49.494;8.410;2023-02-26T04:33:37;0.50;99.90
28010;DHT22;15334;49.494;8.410;2023-02-26T04:36:06;0.60;99.90
28010;DHT22;15334;49.494;8.410;2023-02-26T04:38:34;0.60;99.90
28010;DHT22;15334;49.494;8.410;2023-02-26T04:41:03;0.60;99.90
28010;DHT22;15334;49.494;8.410;2023-02-26T04:43:31;0.60;99.90
28010;DHT22;15334;49.494;8.410;2023-02-26T04:45:59;0.60;99.90
28010;DHT22;15334;49.494;8.410;2023-02-26T04:48:30;0.50;99.90
28010;DHT22;15334;49.494;8.410;2023-02-26T04:51:00;0.50;99.90
28010;DHT22;15334;49.494;8.410;2023-02-26T04:53:28;0.50;99.90
28010;DHT22;15334;49.494;8.410;2023-02-26T04:55:57;0.50;99.90
28010;DHT22;15334;49.494;8.410;2023-02-26T04:58:28;0.50;99.90
28010;DHT22;15334;49.494;8.410;2023-02-26T05:00:57;0.40;99.90
28010;DHT22;15334;49.494;8.410;2023-02-26T05:03:25;0.40;99.90
28010;DHT22;15334;49.494;8.410;2023-02-26T05:05:54;0.40;99.90
28010;DHT22;15334;49.494;8.410;2023-02-26T05:08:23;0.30;99.90
28010;DHT22;15334;49.494;8.410;2023-02-26T05:10:52;0.30;99.90
28010;DHT22;15334;49.494;8.410;2023-02-26T05:13:21;0.20;99.90
28010;DHT22;15334;49.494;8.410;2023-02-26T05:15:49;0.20;99.90
28010;DHT22;15334;49.494;8.410;2023-02-26T05:18:20;0.20;99.90
28010;DHT22;15334;49.494;8.410;2023-02-26T05:20:53;0.20;99.90
28010;DHT22;15334;49.494;8.410;2023-02-26T05:23:24;0.20;99.90
28010;DHT22;15334;49.494;8.410;2023-02-26T05:25:54;0.10;99.90
28010;DHT22;15334;49.494;8.410;2023-02-26T05:28:30;0.10;99.90
28010;DHT22;15334;49.494;8.410;2023-02-26T05:31:02;0.10;99.90
28010;DHT22;15334;49.494;8.410;2023-02-26T05:33:31;0.10;99.90
28010;DHT22;15334;49.494;8.410;2023-02-26T05:36:03;0.10;99.90
28010;DHT22;15334;49.494;8.410;2023-02-26T05:38:34;0.10;99.90
28010;DHT22;15334;49.494;8.410;2023-02-26T05:41:03;0.10;99.90
28010;DHT22;15334;49.494;8.410;2023-02-26T05:43:31;0.10;99.90
28010;DHT22;15334;49.494;8.410;2023-02-26T05:46:02;0.00;99.90
28010;DHT22;15334;49.494;8.410;2023-02-26T05:48:34;0.00;99.90
28010;DHT22;15334;49.494;8.410;2023-02-26T05:51:02;0.10;99.90
28010;DHT22;15334;49.494;8.410;2023-02-26T05:53:33;0.00;99.90
28010;DHT22;15334;49.494;8.410;2023-02-26T05:56:02;0.00;99.90
28010;DHT22;15334;49.494;8.410;2023-02-26T05:58:32;0.00;99.90
28010;DHT22;15334;49.494;8.410;2023-02-26T06:01:00;0.10;99.90
28010;DHT22;15334;49.494;8.410;2023-02-26T06:03:29;0.10;99.90
28010;DHT22;15334;49.494;8.410;2023-02-26T06:06:00;0.10;99.90
28010;DHT22;15334;49.494;8.410;2023-02-26T06:08:29;0.00;99.90
28010;DHT22;15334;49.494;8.410;2023-02-26T06:11:02;0.10;99.90
28010;DHT22;15334;49.494;8.410;2023-02-26T06:13:30;0.10;99.90
28010;DHT22;15334;49.494;8.410;2023-02-26T06:16:01;0.10;99.90
28010;DHT22;15334;49.494;8.410;2023-02-26T06:18:30;0.10;99.90
28010;DHT22;15334;49.494;8.410;2023-02-26T06:21:00;0.10;99.90
28010;DHT22;15334;49.494;8.410;2023-02-26T06:23:29;0.10;99.90
28010;DHT22;15334;49.494;8.410;2023-02-26T06:25:59;0.10;99.90
28010;DHT22;15334;49.494;8.410;2023-02-26T06:28:30;0.10;99.90
28010;DHT22;15334;49.494;8.410;2023-02-26T06:31:01;0.00;99.90
28010;DHT22;15334;49.494;8.410;2023-02-26T06:33:30;0.00;99.90
28010;DHT22;15334;49.494;8.410;2023-02-26T06:35:58;0.10;99.90
28010;DHT22;15334;49.494;8.410;2023-02-26T06:38:28;0.00;99.90
28010;DHT22;15334;49.494;8.410;2023-02-26T06:40:57;0.10;99.90
28010;DHT22;15334;49.494;8.410;2023-02-26T06:43:25;0.10;99.90
28010;DHT22;15334;49.494;8.410;2023-02-26T06:45:57;0.10;99.90
28010;DHT22;15334;49.494;8.410;2023-02-26T06:48:26;0.10;99.90
28010;DHT22;15334;49.494;8.410;2023-02-26T06:50:56;0.10;99.90
28010;DHT22;15334;49.494;8.410;2023-02-26T06:53:25;0.10;99.90
28010;DHT22;15334;49.494;8.410;2023-02-26T06:55:53;0.10;99.90
28010;DHT22;15334;49.494;8.410;2023-02-26T06:58:22;0.00;99.90
28010;DHT22;15334;49.494;8.410;2023-02-26T07:00:51;0.00;99.90
28010;DHT22;15334;49.494;8.410;2023-02-26T07:03:21;0.00;99.90
28010;DHT22;15334;49.494;8.410;2023-02-26T07:05:50;0.00;99.90
28010;DHT22;15334;49.494;8.410;2023-02-26T07:08:18;0.10;99.90
28010;DHT22;15334;49.494;8.410;2023-02-26T07:10:47;0.10;99.90
28010;DHT22;15334;49.494;8.410;2023-02-26T07:13:18;0.10;99.90
28010;DHT22;15334;49.494;8.410;2023-02-26T07:15:50;0.00;99.90
28010;DHT22;15334;49.494;8.410;2023-02-26T07:18:23;0.00;99.90
28010;DHT22;15334;49.494;8.410;2023-02-26T07:20:51;0.00;99.90
28010;DHT22;15334;49.494;8.410;2023-02-26T07:23:20;0.00;99.90
28010;DHT22;15334;49.494;8.410;2023-02-26T07:25:48;0.00;99.90
28010;DHT22;15334;49.494;8.410;2023-02-26T07:28:17;0.00;99.90
28010;DHT22;15334;49.494;8.410;2023-02-26T07:30:46;0.00;99.90
28010;DHT22;15334;49.494;8.410;2023-02-26T07:33:17;0.00;99.90
28010;DHT22;15334;49.494;8.410;2023-02-26T07:35:47;0.00;99.90
28010;DHT22;15334;49.494;8.410;2023-02-26T07:38:23;0.00;99.90
28010;DHT22;15334;49.494;8.410;2023-02-26T07:40:53;0.20;99.90
28010;DHT22;15334;49.494;8.410;2023-02-26T07:43:22;0.30;99.90
28010;DHT22;15334;49.494;8.410;2023-02-26T07:45:50;0.40;99.90
28010;DHT22;15334;49.494;8.410;2023-02-26T07:48:19;0.40;99.90
28010;DHT22;15334;49.494;8.410;2023-02-26T07:50:53;0.40;99.90
28010;DHT22;15334;49.494;8.410;2023-02-26T07:53:25;0.40;99.90
28010;DHT22;15334;49.494;8.410;2023-02-26T07:55:53;0.30;99.90
28010;DHT22;15334;49.494;8.410;2023-02-26T07:58:22;0.30;99.90
28010;DHT22;15334;49.494;8.410;2023-02-26T08:00:50;0.30;99.90
28010;DHT22;15334;49.494;8.410;2023-02-26T08:03:18;0.30;99.90
28010;DHT22;15334;49.494;8.410;2023-02-26T08:05:48;0.40;99.90
28010;DHT22;15334;49.494;8.410;2023-02-26T08:08:21;0.40;99.90
28010;DHT22;15334;49.494;8.410;2023-02-26T08:10:51;0.50;99.90
28010;DHT22;15334;49.494;8.410;2023-02-26T08:13:19;0.50;99.90
28010;DHT22;15334;49.494;8.410;2023-02-26T08:15:47;0.60;99.90
28010;DHT22;15334;49.494;8.410;2023-02-26T08:18:15;0.60;99.90
28010;DHT22;15334;49.494;8.410;2023-02-26T08:20:43;0.70;99.90
28010;DHT22;15334;49.494;8.410;2023-02-26T08:23:14;0.70;99.90
28010;DHT22;15334;49.494;8.410;2023-02-26T08:25:43;0.70;99.90
28010;DHT22;15334;49.494;8.410;2023-02-26T08:28:12;0.70;99.90
28010;DHT22;15334;49.494;8.410;2023-02-26T08:30:40;0.80;99.90
28010;DHT22;15334;49.494;8.410;2023-02-26T08:33:19;0.80;99.90
28010;DHT22;15334;49.494;8.410;2023-02-26T08:35:51;0.90;99.90
28010;DHT22;15334;49.494;8.410;2023-02-26T08:38:19;1.00;99.90
28010;DHT22;15334;49.494;8.410;2023-02-26T08:40:50;1.00;99.90
28010;DHT22;15334;49.494;8.410;2023-02-26T08:43:18;1.10;99.90
28010;DHT22;15334;49.494;8.410;2023-02-26T08:45:47;1.20;99.90
28010;DHT22;15334;49.494;8.410;2023-02-26T08:48:16;1.20;99.90
28010;DHT22;15334;49.494;8.410;2023-02-26T08:50:45;1.30;99.90
28010;DHT22;15334;49.494;8.410;2023-02-26T08:53:17;1.30;99.90
28010;DHT22;15334;49.494;8.410;2023-02-26T08:55:47;1.50;99.90
28010;DHT22;15334;49.494;8.410;2023-02-26T08:58:18;1.70;99.90
28010;DHT22;15334;49.494;8.410;2023-02-26T09:00:47;1.80;99.90
28010;DHT22;15334;49.494;8.410;2023-02-26T09:03:15;1.80;99.90
28010;DHT22;15334;49.494;8.410;2023-02-26T09:05:43;1.80;99.90
28010;DHT22;15334;49.494;8.410;2023-02-26T09:08:11;1.80;99.90
28010;DHT22;15334;49.494;8.410;2023-02-26T09:10:42;1.90;99.90
28010;DHT22;15334;49.494;8.410;2023-02-26T09:13:10;2.00;99.90
28010;DHT22;15334;49.494;8.410;2023-02-26T09:15:40;2.00;99.90
28010;DHT22;15334;49.494;8.410;2023-02-26T09:18:09;1.90;99.90
28010;DHT22;15334;49.494;8.410;2023-02-26T09:20:46;1.90;99.90
28010;DHT22;15334;49.494;8.410;2023-02-26T09:23:14;2.00;99.90
28010;DHT22;15334;49.494;8.410;2023-02-26T09:25:42;2.10;99.90
28010;DHT22;15334;49.494;8.410;2023-02-26T09:28:10;2.30;99.90
28010;DHT22;15334;49.494;8.410;2023-02-26T09:30:40;2.40;99.90
28010;DHT22;15334;49.494;8.410;2023-02-26T09:33:08;2.50;99.90
28010;DHT22;15334;49.494;8.410;2023-02-26T09:35:36;2.50;99.90
28010;DHT22;15334;49.494;8.410;2023-02-26T09:38:04;2.50;99.90
28010;DHT22;15334;49.494;8.410;2023-02-26T09:40:39;2.50;99.90
28010;DHT22;15334;49.494;8.410;2023-02-26T09:43:27;2.50;99.90
28010;DHT22;15334;49.494;8.410;2023-02-26T09:46:03;2.80;99.90
28010;DHT22;15334;49.494;8.410;2023-02-26T09:48:34;2.80;99.90
28010;DHT22;15334;49.494;8.410;2023-02-26T09:51:03;2.70;99.90
28010;DHT22;15334;49.494;8.410;2023-02-26T09:53:36;2.90;99.90
28010;DHT22;15334;49.494;8.410;2023-02-26T09:56:12;3.00;99.90
28010;DHT22;15334;49.494;8.410;2023-02-26T09:58:42;3.10;99.90
28010;DHT22;15334;49.494;8.410;2023-02-26T10:01:17;3.20;99.90
28010;DHT22;15334;49.494;8.410;2023-02-26T10:03:56;3.20;99.90
28010;DHT22;15334;49.494;8.410;2023-02-26T10:06:30;3.20;99.90
28010;DHT22;15334;49.494;8.410;2023-02-26T10:09:18;3.10;99.90
28010;DHT22;15334;49.494;8.410;2023-02-26T10:11:50;3.10;99.90
28010;DHT22;15334;49.494;8.410;2023-02-26T10:14:25;2.90;99.90
28010;DHT22;15334;49.494;8.410;2023-02-26T10:16:59;3.00;99.90
28010;DHT22;15334;49.494;8.410;2023-02-26T10:19:32;3.20;99.90
28010;DHT22;15334;49.494;8.410;2023-02-26T10:22:12;3.30;99.90
28010;DHT22;15334;49.494;8.410;2023-02-26T10:24:49;3.30;99.90
28010;DHT22;15334;49.494;8.410;2023-02-26T10:27:23;3.20;99.90
28010;DHT22;15334;49.494;8.410;2023-02-26T10:30:01;3.00;99.90
28010;DHT22;15334;49.494;8.410;2023-02-26T10:32:45;3.00;99.90
28010;DHT22;15334;49.494;8.410;2023-02-26T10:35:19;3.00;99.90
28010;DHT22;15334;49.494;8.410;2023-02-26T10:37:55;3.10;99.90
28010;DHT22;15334;49.494;8.410;2023-02-26T10:40:33;3.10;99.90
28010;DHT22;15334;49.494;8.410;2023-02-26T10:43:13;3.30;99.90
28010;DHT22;15334;49.494;8.410;2023-02-26T10:46:05;3.40;99.90
28010;DHT22;15334;49.494;8.410;2023-02-26T10:49:00;3.50;99.90
28010;DHT22;15334;49.494;8.410;2023-02-26T10:52:00;3.70;99.90
28010;DHT22;15334;49.494;8.410;2023-02-26T10:58:17;3.70;99.90
28010;DHT22;15334;49.494;8.410;2023-02-26T11:00:57;3.90;99.90
28010;DHT22;15334;49.494;8.410;2023-02-26T11:03:31;3.90;99.90
28010;DHT22;15334;49.494;8.410;2023-02-26T11:06:04;3.80;99.90
28010;DHT22;15334;49.494;8.410;2023-02-26T11:08:38;4.00;99.90
28010;DHT22;15334;49.494;8.410;2023-02-26T11:11:07;4.00;99.90
28010;DHT22;15334;49.494;8.410;2023-02-26T11:13:37;4.00;99.90
28010;DHT22;15334;49.494;8.410;2023-02-26T11:16:12;4.20;99.90
28010;DHT22;15334;49.494;8.410;2023-02-26T11:18:50;4.40;99.90
28010;DHT22;15334;49.494;8.410;2023-02-26T11:21:25;4.80;99.90
28010;DHT22;15334;49.494;8.410;2023-02-26T11:23:57;5.70;99.90
28010;DHT22;15334;49.494;8.410;2023-02-26T11:26:30;6.40;99.90
28010;DHT22;15334;49.494;8.410;2023-02-26T11:28:59;7.10;99.90
28010;DHT22;15334;49.494;8.410;2023-02-26T11:31:29;8.40;98.00
28010;DHT22;15334;49.494;8.410;2023-02-26T11:34:02;7.80;96.80
28010;DHT22;15334;49.494;8.410;2023-02-26T11:36:33;7.30;96.90
28010;DHT22;15334;49.494;8.410;2023-02-26T11:39:06;7.40;97.20
28010;DHT22;15334;49.494;8.410;2023-02-26T11:41:37;6.50;98.10
28010;DHT22;15334;49.494;8.410;2023-02-26T11:44:09;6.50;98.60
28010;DHT22;15334;49.494;8.410;2023-02-26T11:46:45;6.90;98.70
28010;DHT22;15334;49.494;8.410;2023-02-26T11:49:17;6.00;98.50
28010;DHT22;15334;49.494;8.410;2023-02-26T11:52:04;5.20;99.90
28010;DHT22;15334;49.494;8.410;2023-02-26T11:54:35;5.00;99.90
28010;DHT22;15334;49.494;8.410;2023-02-26T11:57:06;4.90;99.90
28010;DHT22;15334;49.494;8.410;2023-02-26T11:59:39;4.70;99.90
28010;DHT22;15334;49.494;8.410;2023-02-26T12:02:11;4.50;99.90
28010;DHT22;15334;49.494;8.410;2023-02-26T12:04:44;4.40;99.90
28010;DHT22;15334;49.494;8.410;2023-02-26T12:07:14;4.50;99.90
28010;DHT22;15334;49.494;8.410;2023-02-26T12:09:44;4.30;99.90
28010;DHT22;15334;49.494;8.410;2023-02-26T12:12:31;4.40;99.90
28010;DHT22;15334;49.494;8.410;2023-02-26T12:15:10;4.30;99.90
28010;DHT22;15334;49.494;8.410;2023-02-26T12:17:56;4.30;99.90
28010;DHT22;15334;49.494;8.410;2023-02-26T12:20:28;4.00;99.90
28010;DHT22;15334;49.494;8.410;2023-02-26T12:23:15;3.90;99.90
28010;DHT22;15334;49.494;8.410;2023-02-26T12:26:11;3.80;99.90
28010;DHT22;15334;49.494;8.410;2023-02-26T12:28:54;3.90;99.90
28010;DHT22;15334;49.494;8.410;2023-02-26T12:31:45;3.90;99.90
28010;DHT22;15334;49.494;8.410;2023-02-26T12:34:30;4.00;99.90
28010;DHT22;15334;49.494;8.410;2023-02-26T12:37:15;4.00;99.90
28010;DHT22;15334;49.494;8.410;2023-02-26T12:39:56;4.10;99.90
28010;DHT22;15334;49.494;8.410;2023-02-26T12:42:36;4.30;99.90
28010;DHT22;15334;49.494;8.410;2023-02-26T12:45:15;4.50;99.90
28010;DHT22;15334;49.494;8.410;2023-02-26T12:47:53;4.60;99.90
28010;DHT22;15334;49.494;8.410;2023-02-26T12:50:40;4.60;99.90
28010;DHT22;15334;49.494;8.410;2023-02-26T12:53:36;5.90;99.90
28010;DHT22;15334;49.494;8.410;2023-02-26T12:59:21;11.30;92.80
28010;DHT22;15334;49.494;8.410;2023-02-26T13:02:04;13.20;84.60
28010;DHT22;15334;49.494;8.410;2023-02-26T13:05:01;13.30;79.30
28010;DHT22;15334;49.494;8.410;2023-02-26T13:08:00;10.60;81.10
28010;DHT22;15334;49.494;8.410;2023-02-26T13:10:43;7.60;88.60
28010;DHT22;15334;49.494;8.410;2023-02-26T13:13:31;6.20;92.60
28010;DHT22;15334;49.494;8.410;2023-02-26T13:16:14;5.60;93.20
28010;DHT22;15334;49.494;8.410;2023-02-26T13:18:52;5.30;94.20
28010;DHT22;15334;49.494;8.410;2023-02-26T13:21:25;5.20;94.90
28010;DHT22;15334;49.494;8.410;2023-02-26T13:23:56;5.10;95.40
28010;DHT22;15334;49.494;8.410;2023-02-26T13:26:28;5.10;95.80
28010;DHT22;15334;49.494;8.410;2023-02-26T13:28:59;4.80;95.70
28010;DHT22;15334;49.494;8.410;2023-02-26T13:31:32;4.60;96.20
28010;DHT22;15334;49.494;8.410;2023-02-26T13:34:06;4.70;96.60
28010;DHT22;15334;49.494;8.410;2023-02-26T13:36:41;4.50;96.30
28010;DHT22;15334;49.494;8.410;2023-02-26T13:39:29;4.60;96.30
28010;DHT22;15334;49.494;8.410;2023-02-26T13:42:03;4.50;96.60
28010;DHT22;15334;49.494;8.410;2023-02-26T13:44:39;4.70;96.80
28010;DHT22;15334;49.494;8.410;2023-02-26T13:47:23;4.70;96.70
28010;DHT22;15334;49.494;8.410;2023-02-26T13:50:05;4.60;96.90
28010;DHT22;15334;49.494;8.410;2023-02-26T13:52:50;4.70;97.10
28010;DHT22;15334;49.494;8.410;2023-02-26T13:55:39;4.90;96.90
28010;DHT22;15334;49.494;8.410;2023-02-26T13:58:29;5.10;96.80
28010;DHT22;15334;49.494;8.410;2023-02-26T14:01:08;4.70;96.50
28010;DHT22;15334;49.494;8.410;2023-02-26T14:03:42;4.70;97.10
28010;DHT22;15334;49.494;8.410;2023-02-26T14:06:37;4.70;96.60
28010;DHT22;15334;49.494;8.410;2023-02-26T14:09:34;4.50;96.80
28010;DHT22;15334;49.494;8.410;2023-02-26T14:12:14;4.40;97.00
28010;DHT22;15334;49.494;8.410;2023-02-26T14:15:18;4.30;97.40
28010;DHT22;15334;49.494;8.410;2023-02-26T14:17:51;4.50;97.80
28010;DHT22;15334;49.494;8.410;2023-02-26T14:20:27;4.70;97.80
28010;DHT22;15334;49.494;8.410;2023-02-26T14:25:54;4.50;96.80
28010;DHT22;15334;49.494;8.410;2023-02-26T14:28:54;4.50;96.50
28010;DHT22;15334;49.494;8.410;2023-02-26T14:31:24;4.70;95.90
28010;DHT22;15334;49.494;8.410;2023-02-26T14:34:07;5.00;95.90
28010;DHT22;15334;49.494;8.410;2023-02-26T14:36:48;5.10;95.40
28010;DHT22;15334;49.494;8.410;2023-02-26T14:39:27;5.10;95.10
28010;DHT22;15334;49.494;8.410;2023-02-26T14:42:01;5.20;95.50
28010;DHT22;15334;49.494;8.410;2023-02-26T14:44:35;5.20;95.40
28010;DHT22;15334;49.494;8.410;2023-02-26T14:47:04;5.20;94.10
28010;DHT22;15334;49.494;8.410;2023-02-26T14:49:35;5.10;94.60
28010;DHT22;15334;49.494;8.410;2023-02-26T14:52:23;5.10;93.70
28010;DHT22;15334;49.494;8.410;2023-02-26T14:55:07;5.10;93.80
28010;DHT22;15334;49.494;8.410;2023-02-26T14:57:45;5.10;94.00
28010;DHT22;15334;49.494;8.410;2023-02-26T15:00:24;4.80;94.30
28010;DHT22;15334;49.494;8.410;2023-02-26T15:03:16;4.80;95.00
28010;DHT22;15334;49.494;8.410;2023-02-26T15:05:58;4.90;94.60
28010;DHT22;15334;49.494;8.410;2023-02-26T15:08:46;4.90;94.70
28010;DHT22;15334;49.494;8.410;2023-02-26T15:11:39;4.90;94.80
28010;DHT22;15334;49.494;8.410;2023-02-26T15:14:32;4.80;95.20
28010;DHT22;15334;49.494;8.410;2023-02-26T15:17:10;4.70;94.50
28010;DHT22;15334;49.494;8.410;2023-02-26T15:19:53;4.70;96.00
28010;DHT22;15334;49.494;8.410;2023-02-26T15:22:37;4.50;96.80
28010;DHT22;15334;49.494;8.410;2023-02-26T15:25:15;4.40;97.10
28010;DHT22;15334;49.494;8.410;2023-02-26T15:27:46;4.20;97.30
28010;DHT22;15334;49.494;8.410;2023-02-26T15:30:16;4.20;97.40
28010;DHT22;15334;49.494;8.410;2023-02-26T15:32:45;4.10;96.90
28010;DHT22;15334;49.494;8.410;2023-02-26T15:35:15;4.10;97.20
28010;DHT22;15334;49.494;8.410;2023-02-26T15:37:48;4.10;96.90
28010;DHT22;15334;49.494;8.410;2023-02-26T15:40:18;4.00;96.60
28010;DHT22;15334;49.494;8.410;2023-02-26T15:42:50;3.90;96.30
28010;DHT22;15334;49.494;8.410;2023-02-26T15:45:19;3.80;96.30
28010;DHT22;15334;49.494;8.410;2023-02-26T15:47:53;3.80;96.50
28010;DHT22;15334;49.494;8.410;2023-02-26T15:50:25;3.90;96.50
28010;DHT22;15334;49.494;8.410;2023-02-26T15:52:59;4.00;95.70
28010;DHT22;15334;49.494;8.410;2023-02-26T15:55:28;4.00;95.50
28010;DHT22;15334;49.494;8.410;2023-02-26T15:57:58;4.00;95.60
28010;DHT22;15334;49.494;8.410;2023-02-26T16:00:26;4.00;95.40
28010;DHT22;15334;49.494;8.410;2023-02-26T16:02:58;4.00;95.30
28010;DHT22;15334;49.494;8.410;2023-02-26T16:05:27;4.00;94.50
28010;DHT22;15334;49.494;8.410;2023-02-26T16:08:05;3.90;95.00
28010;DHT22;15334;49.494;8.410;2023-02-26T16:13:23;3.80;94.20
28010;DHT22;15334;49.494;8.410;2023-02-26T16:15:54;3.80;94.90
28010;DHT22;15334;49.494;8.410;2023-02-26T16:18:25;3.80;94.40
28010;DHT22;15334;49.494;8.410;2023-02-26T16:20:55;3.90;94.50
28010;DHT22;15334;49.494;8.410;2023-02-26T16:23:31;3.90;94.90
28010;DHT22;15334;49.494;8.410;2023-02-26T16:26:04;3.90;95.10
28010;DHT22;15334;49.494;8.410;2023-02-26T16:28:36;4.00;94.90
28010;DHT22;15334;49.494;8.410;2023-02-26T16:31:15;4.00;94.70
28010;DHT22;15334;49.494;8.410;2023-02-26T16:33:52;4.00;94.70
28010;DHT22;15334;49.494;8.410;2023-02-26T16:36:22;4.00;95.00
28010;DHT22;15334;49.494;8.410;2023-02-26T16:39:00;3.90;94.90